createdAt,value
2022-08-14T00:02:02.288Z,101673.66
2022-08-14T00:04:41.905Z,101671.91
2022-08-14T00:07:13.792Z,101665.66
2022-08-14T00:10:01.793Z,101677.16
2022-08-14T00:12:33.459Z,101678.06
2022-08-14T00:15:13.376Z,101670.91
2022-08-14T00:17:48.171Z,101678.03
2022-08-14T00:20:30.150Z,101671.81
2022-08-14T00:22:58.808Z,101673.59
2022-08-14T00:25:42.321Z,101670.94
2022-08-14T00:28:15.339Z,101678.03
2022-08-14T00:30:47.450Z,101682.44
2022-08-14T00:33:16.380Z,101681.53
2022-08-14T00:36:37.318Z,101674.44
2022-08-14T00:38:35.319Z,101624.56
2022-08-14T00:41:06.125Z,101673.50
2022-08-14T00:43:34.266Z,101672.63
2022-08-14T00:46:08.014Z,101669.06
2022-08-14T00:48:38.346Z,101671.72
2022-08-14T00:51:14.895Z,101669.91
2022-08-14T00:53:43.757Z,101675.22
2022-08-14T00:56:15.557Z,101677.88
2022-08-14T00:58:45.107Z,101651.16
2022-08-14T01:01:17.020Z,101677.88
2022-08-14T01:03:45.513Z,101660.97
2022-08-14T01:06:19.239Z,101677.84
2022-08-14T01:08:51.607Z,101624.47
2022-08-14T01:11:31.827Z,101642.25
2022-08-14T01:14:25.978Z,101673.38
2022-08-14T01:16:55.749Z,101676.00
2022-08-14T01:19:43.343Z,101684.84
2022-08-14T01:22:13.436Z,101683.94
2022-08-14T01:24:47.216Z,101687.47
2022-08-14T01:27:18.207Z,101676.84
2022-08-14T01:29:59.144Z,101688.34
2022-08-14T01:32:37.414Z,101687.47
2022-08-14T01:35:19.129Z,101685.66
2022-08-14T01:37:59.890Z,101688.31
2022-08-14T01:40:33.152Z,101675.88
2022-08-14T01:43:09.005Z,101671.47
2022-08-14T01:45:40.835Z,101671.44
2022-08-14T01:48:13.940Z,101669.69
2022-08-14T01:50:44.187Z,101673.22
2022-08-14T01:53:14.903Z,101667.00
2022-08-14T01:55:43.803Z,101664.31
2022-08-14T01:58:19.739Z,101608.25
2022-08-14T02:00:58.875Z,101661.66
2022-08-14T02:03:31.003Z,101668.75
2022-08-14T02:06:04.304Z,101666.09
2022-08-14T02:08:52.986Z,101654.50
2022-08-14T02:11:24.766Z,101656.22
2022-08-14T02:13:56.746Z,101662.44
2022-08-14T02:16:27.348Z,101664.22
2022-08-14T02:18:58.163Z,101666.88
2022-08-14T02:21:27.281Z,101662.44
2022-08-14T02:23:57.557Z,101633.97
2022-08-14T02:26:29.809Z,101667.72
2022-08-14T02:29:04.198Z,101625.91
2022-08-14T02:31:42.398Z,101659.75
2022-08-14T02:34:14.747Z,101656.19
2022-08-14T02:37:04.591Z,101659.72
2022-08-14T02:39:38.619Z,101659.72
2022-08-14T02:42:12.858Z,101657.94
2022-08-14T02:44:49.051Z,101640.97
2022-08-14T02:47:21.078Z,101663.22
2022-08-14T02:49:56.693Z,101653.47
2022-08-14T02:52:55.656Z,101646.38
2022-08-14T02:55:20.082Z,101644.59
2022-08-14T02:58:03.393Z,101591.25
2022-08-14T03:00:40.104Z,101642.81
2022-08-14T03:03:08.989Z,101641.03
2022-08-14T03:05:41.284Z,101570.78
2022-08-14T03:08:15.382Z,101655.19
2022-08-14T03:10:49.350Z,101600.06
2022-08-14T03:13:21.458Z,101653.38
2022-08-14T03:15:55.309Z,101645.38
2022-08-14T03:18:30.813Z,101649.81
2022-08-14T03:21:01.789Z,101645.38
2022-08-14T03:23:38.223Z,101628.50
2022-08-14T03:26:12.632Z,101654.22
2022-08-14T03:28:43.348Z,101642.75
2022-08-14T03:31:13.152Z,101649.81
2022-08-14T03:33:45.508Z,101658.66
2022-08-14T03:37:51.228Z,101615.16
2022-08-14T03:39:21.928Z,101644.50
2022-08-14T03:41:54.229Z,101647.19
2022-08-14T03:45:27.001Z,101628.50
2022-08-14T03:47:12.147Z,101634.75
2022-08-14T03:49:44.120Z,101608.13
2022-08-14T03:52:28.163Z,101641.91
2022-08-14T03:55:03.966Z,101639.25
2022-08-14T03:57:37.228Z,101637.47
2022-08-14T04:00:14.028Z,101640.16
2022-08-14T04:02:57.240Z,101641.09
2022-08-14T04:05:26.611Z,101631.34
2022-08-14T04:08:08.484Z,101618.06
2022-08-14T04:10:42.937Z,101642.03
2022-08-14T04:13:18.358Z,101642.06
2022-08-14T04:15:56.387Z,101620.75
2022-08-14T04:18:30.621Z,101643.88
2022-08-14T04:20:59.441Z,101648.34
2022-08-14T04:23:29.465Z,101645.72
2022-08-14T04:26:08.286Z,101643.09
2022-08-14T04:29:01.945Z,101636.00
2022-08-14T04:32:58.418Z,101648.47
2022-08-14T04:34:27.303Z,101639.63
2022-08-14T04:37:17.400Z,101644.94
2022-08-14T04:40:08.621Z,101630.75
2022-08-14T04:43:03.264Z,101638.78
2022-08-14T04:45:40.933Z,101643.25
2022-08-14T04:48:12.976Z,101644.16
2022-08-14T04:50:44.305Z,101643.28
2022-08-14T04:53:15.797Z,101634.41
2022-08-14T04:55:50.019Z,101651.28
2022-08-14T04:58:32.421Z,101643.34
2022-08-14T05:01:06.288Z,101645.13
2022-08-14T05:03:42.240Z,101608.69
2022-08-14T05:06:37.705Z,101624.72
2022-08-14T05:09:00.809Z,101641.63
2022-08-14T05:11:34.652Z,101622.97
2022-08-14T05:14:34.338Z,101636.38
2022-08-14T05:16:54.267Z,101635.50
2022-08-14T05:19:29.565Z,101631.97
2022-08-14T05:22:15.796Z,101591.09
2022-08-14T05:24:48.699Z,101637.34
2022-08-14T05:27:22.801Z,101635.63
2022-08-14T05:29:55.141Z,101637.41
2022-08-14T05:32:27.653Z,101636.56
2022-08-14T05:34:58.477Z,101640.13
2022-08-14T05:37:28.015Z,101632.16
2022-08-14T05:39:57.504Z,101636.59
2022-08-14T05:42:29.270Z,101637.53
2022-08-14T05:45:00.354Z,101639.31
2022-08-14T05:47:33.937Z,101636.66
2022-08-14T05:50:17.571Z,101634.00
2022-08-14T05:52:47.360Z,101642.00
2022-08-14T05:55:15.648Z,101642.03
2022-08-14T05:57:53.330Z,101642.91
2022-08-14T06:00:28.350Z,101630.50
2022-08-14T06:02:59.978Z,101635.88
2022-08-14T06:05:29.614Z,101639.41
2022-08-14T06:07:59.352Z,101634.97
2022-08-14T06:10:28.530Z,101637.63
2022-08-14T06:12:58.163Z,101636.75
2022-08-14T06:15:30.678Z,101631.41
2022-08-14T06:18:01.748Z,101625.13
2022-08-14T06:20:41.178Z,101627.78
2022-08-14T06:23:09.350Z,101615.34
2022-08-14T06:25:37.636Z,101604.66
2022-08-14T06:28:06.465Z,101629.53
2022-08-14T06:30:54.926Z,101630.38
2022-08-14T06:33:30.130Z,101623.25
2022-08-14T06:36:12.859Z,101628.56
2022-08-14T06:38:46.545Z,101636.53
2022-08-14T06:41:20.858Z,101630.28
2022-08-14T06:44:04.601Z,101625.78
2022-08-14T06:46:34.085Z,101621.28
2022-08-14T06:49:04.305Z,101615.03
2022-08-14T06:51:44.338Z,101636.31
2022-08-14T06:54:12.884Z,101627.41
2022-08-14T06:56:44.230Z,101633.56
2022-08-14T06:59:19.637Z,101623.72
2022-08-14T07:02:06.094Z,101631.63
2022-08-14T07:04:59.930Z,101632.38
2022-08-14T07:07:39.306Z,101625.13
2022-08-14T07:10:07.929Z,101624.06
2022-08-14T07:13:02.056Z,101622.03
2022-08-14T07:15:33.671Z,101622.59
2022-08-14T07:18:03.824Z,101612.16
2022-08-14T07:20:38.762Z,101617.44
2022-08-14T07:23:10.707Z,101619.09
2022-08-14T07:25:42.042Z,101610.72
2022-08-14T07:28:20.700Z,101593.16
2022-08-14T07:30:51.595Z,101609.16
2022-08-14T07:33:29.205Z,101610.41
2022-08-14T07:36:01.900Z,101606.03
2022-08-14T07:38:37.660Z,101612.66
2022-08-14T07:41:14.371Z,101606.72
2022-08-14T07:43:52.950Z,101608.75
2022-08-14T07:46:28.234Z,101606.41
2022-08-14T07:48:58.374Z,101603.44
2022-08-14T07:51:34.131Z,101592.97
2022-08-14T07:54:03.399Z,101595.81
2022-08-14T07:56:47.912Z,101594.09
2022-08-14T07:59:18.693Z,101592.00
2022-08-14T08:01:48.259Z,101595.66
2022-08-14T08:04:26.961Z,101593.03
2022-08-14T08:06:56.798Z,101589.44
2022-08-14T08:09:32.121Z,101579.53
2022-08-14T08:12:04.581Z,101581.22
2022-08-14T08:14:56.754Z,101585.88
2022-08-14T08:17:24.628Z,101593.38
2022-08-14T08:19:52.651Z,101589.97
2022-08-14T08:22:23.828Z,101577.75
2022-08-14T08:24:55.670Z,101587.13
2022-08-14T08:27:25.894Z,101591.69
2022-08-14T08:30:10.211Z,101571.91
2022-08-14T08:32:41.419Z,101588.69
2022-08-14T08:35:19.090Z,101579.81
2022-08-14T08:37:48.665Z,101582.81
2022-08-14T08:40:32.416Z,101576.41
2022-08-14T08:43:00.419Z,101577.16
2022-08-14T08:45:30.367Z,101551.13
2022-08-14T08:47:59.115Z,101582.41
2022-08-14T08:53:04.618Z,101574.59
2022-08-14T08:55:35.578Z,101569.47
2022-08-14T08:58:16.016Z,101571.53
2022-08-14T09:00:48.833Z,101558.72
2022-08-14T09:03:20.809Z,101567.34
2022-08-14T09:05:54.003Z,101561.03
2022-08-14T09:08:31.670Z,101560.94
2022-08-14T09:11:02.887Z,101562.34
2022-08-14T09:13:49.934Z,101558.75
2022-08-14T09:16:21.143Z,101552.34
2022-08-14T09:18:49.995Z,101561.22
2022-08-14T09:21:24.061Z,101513.72
2022-08-14T09:24:29.441Z,101415.91
2022-08-14T09:26:49.600Z,101554.09
2022-08-14T09:29:22.887Z,101541.06
2022-08-14T09:31:57.268Z,101546.63
2022-08-14T09:34:39.544Z,101543.22
2022-08-14T09:37:36.074Z,101533.41
2022-08-14T09:40:16.603Z,101535.25
2022-08-14T09:42:59.058Z,101540.53
2022-08-14T09:45:40.309Z,101527.66
2022-08-14T09:48:29.932Z,101533.41
2022-08-14T09:54:13.549Z,101535.09
2022-08-14T09:56:32.914Z,101535.59
2022-08-14T09:59:15.374Z,101538.22
2022-08-14T10:01:46.082Z,101533.44
2022-08-14T10:04:33.744Z,101532.38
2022-08-14T10:07:05.339Z,101530.38
2022-08-14T10:09:35.004Z,101527.50
2022-08-14T10:12:13.288Z,101529.91
2022-08-14T10:14:53.070Z,101517.06
2022-08-14T10:17:27.621Z,101515.47
2022-08-14T10:20:01.307Z,101529.03
2022-08-14T10:23:13.512Z,101529.91
2022-08-14T10:25:19.928Z,101521.47
2022-08-14T10:27:59.974Z,101523.44
2022-08-14T10:30:35.248Z,101525.66
2022-08-14T10:33:07.063Z,101515.13
2022-08-14T10:35:42.570Z,101510.81
2022-08-14T10:38:19.007Z,101510.06
2022-08-14T10:40:51.973Z,101503.50
2022-08-14T10:43:25.807Z,101508.47
2022-08-14T10:46:03.668Z,101479.56
2022-08-14T10:48:58.238Z,101491.13
2022-08-14T10:51:29.909Z,101499.59
2022-08-14T10:54:01.944Z,101498.47
2022-08-14T10:56:52.038Z,101497.56
2022-08-14T10:59:34.993Z,101492.38
2022-08-14T11:02:35.828Z,101498.56
2022-08-14T11:05:13.214Z,101497.69
2022-08-14T11:07:44.567Z,101504.34
2022-08-14T11:10:15.703Z,101501.53
2022-08-14T11:12:48.122Z,101501.25
2022-08-14T11:15:20.277Z,101500.31
2022-08-14T11:17:49.537Z,101503.50
2022-08-14T11:20:20.237Z,101505.94
2022-08-14T11:22:57.985Z,101466.00
2022-08-14T11:25:44.119Z,101495.38
2022-08-14T11:28:20.901Z,101492.44
2022-08-14T11:31:14.055Z,101493.16
2022-08-14T11:33:42.669Z,101491.81
2022-08-14T11:36:17.787Z,101500.00
2022-08-14T11:38:47.564Z,101496.78
2022-08-14T11:41:17.645Z,101500.16
2022-08-14T11:43:57.880Z,101511.72
2022-08-14T11:46:30.585Z,101512.19
2022-08-14T11:49:06.703Z,101495.69
2022-08-14T11:51:53.652Z,101499.50
2022-08-14T11:54:30.040Z,101490.59
2022-08-14T11:57:04.666Z,101502.28
2022-08-14T11:59:34.166Z,101500.94
2022-08-14T12:03:08.565Z,101494.34
2022-08-14T12:05:00.230Z,101492.75
2022-08-14T12:07:28.811Z,101503.00
2022-08-14T12:10:00.806Z,101491.13
2022-08-14T12:12:49.993Z,101496.56
2022-08-14T12:15:30.564Z,101482.94
2022-08-14T12:18:01.488Z,101481.38
2022-08-14T12:20:34.644Z,101474.56
2022-08-14T12:23:05.240Z,101485.94
2022-08-14T12:25:37.510Z,101462.41
2022-08-14T12:28:33.358Z,101473.00
2022-08-14T12:31:02.109Z,101486.25
2022-08-14T12:33:34.575Z,101474.78
2022-08-14T12:36:06.143Z,101458.00
2022-08-14T12:38:37.868Z,101469.03
2022-08-14T12:41:11.600Z,101452.69
2022-08-14T12:43:51.669Z,101459.81
2022-08-14T12:46:28.306Z,101464.09
2022-08-14T12:49:00.226Z,101464.38
2022-08-14T12:51:31.336Z,101449.25
2022-08-14T12:54:00.503Z,101455.53
2022-08-14T12:56:33.672Z,101447.97
2022-08-14T12:59:04.578Z,101451.25
2022-08-14T13:01:59.738Z,101442.66
2022-08-14T13:04:25.733Z,101443.13
2022-08-14T13:06:54.088Z,101445.66
2022-08-14T13:09:35.891Z,101444.91
2022-08-14T13:12:32.243Z,101442.78
2022-08-14T13:14:58.822Z,101437.84
2022-08-14T13:17:27.284Z,101435.31
2022-08-14T13:20:01.128Z,101427.72
2022-08-14T13:22:33.561Z,101418.69
2022-08-14T13:25:07.406Z,101417.63
2022-08-14T13:27:38.646Z,101383.69
2022-08-14T13:30:14.562Z,101415.41
2022-08-14T13:32:53.316Z,101412.31
2022-08-14T13:35:23.098Z,101399.66
2022-08-14T13:37:53.692Z,101405.00
2022-08-14T13:40:26.211Z,101414.94
2022-08-14T13:42:57.220Z,101407.06
2022-08-14T13:45:33.954Z,101413.41
2022-08-14T13:48:18.517Z,101410.53
2022-08-14T13:51:05.639Z,101388.50
2022-08-14T13:53:52.598Z,101406.31
2022-08-14T13:56:36.859Z,101403.69
2022-08-14T13:59:06.512Z,101396.78
2022-08-14T14:01:43.476Z,101390.25
2022-08-14T14:04:19.279Z,101389.81
2022-08-14T14:06:52.287Z,101379.31
2022-08-14T14:09:32.567Z,101381.69
2022-08-14T14:12:38.354Z,101378.00
2022-08-14T14:15:05.469Z,101359.31
2022-08-14T14:17:34.089Z,101387.94
2022-08-14T14:20:04.552Z,101384.41
2022-08-14T14:23:00.939Z,101383.81
2022-08-14T14:25:22.564Z,101378.22
2022-08-14T14:27:53.452Z,101375.63
2022-08-14T14:30:46.200Z,101367.97
2022-08-14T14:33:42.207Z,101376.81
2022-08-14T14:36:05.185Z,101384.97
2022-08-14T14:38:35.258Z,101364.22
2022-08-14T14:41:05.793Z,101361.63
2022-08-14T14:43:38.968Z,101375.56
2022-08-14T14:46:09.476Z,101363.59
2022-08-14T14:48:46.700Z,101274.06
2022-08-14T14:51:22.641Z,101370.00
2022-08-14T14:53:52.841Z,101368.72
2022-08-14T14:56:50.258Z,101354.66
2022-08-14T14:59:12.699Z,101365.13
2022-08-14T15:01:41.344Z,101360.34
2022-08-14T15:04:19.812Z,101351.16
2022-08-14T15:06:49.158Z,101371.13
2022-08-14T15:09:20.414Z,101366.16
2022-08-14T15:11:51.182Z,101363.13
2022-08-14T15:14:56.203Z,101368.63
2022-08-14T15:17:08.802Z,101365.91
2022-08-14T15:19:38.518Z,101351.94
2022-08-14T15:22:10.592Z,101361.19
2022-08-14T15:24:40.538Z,101355.41
2022-08-14T15:27:10.701Z,101354.44
2022-08-14T15:29:43.205Z,101355.53
2022-08-14T15:32:11.613Z,101361.31
2022-08-14T15:34:48.683Z,101358.13
2022-08-14T15:37:22.697Z,101346.66
2022-08-14T15:39:53.043Z,101335.53
2022-08-14T15:42:23.149Z,101362.28
2022-08-14T15:44:58.385Z,101361.25
2022-08-14T15:47:31.151Z,101327.34
2022-08-14T15:50:01.194Z,101302.81
2022-08-14T15:52:33.734Z,101350.78
2022-08-14T15:55:10.531Z,101346.69
2022-08-14T15:58:01.665Z,101341.53
2022-08-14T16:00:50.206Z,101347.22
2022-08-14T16:03:27.552Z,101347.84
2022-08-14T16:06:11.023Z,101341.53
2022-08-14T16:08:50.339Z,101342.41
2022-08-14T16:11:33.414Z,101326.56
2022-08-14T16:14:06.795Z,101344.50
2022-08-14T16:16:51.458Z,101335.47
2022-08-14T16:19:31.150Z,101337.34
2022-08-14T16:22:58.611Z,101325.19
2022-08-14T16:25:02.053Z,101343.75
2022-08-14T16:27:39.478Z,101331.53
2022-08-14T16:30:24.665Z,101330.53
2022-08-14T16:32:57.014Z,101340.63
2022-08-14T16:35:42.923Z,101337.16
2022-08-14T16:38:35.800Z,101331.50
2022-08-14T16:41:27.654Z,101310.03
2022-08-14T16:44:01.519Z,101318.34
2022-08-14T16:46:32.680Z,101341.81
2022-08-14T16:49:01.510Z,101282.53
2022-08-14T16:51:33.935Z,101231.91
2022-08-14T16:54:33.810Z,101310.28
2022-08-14T16:56:54.086Z,101328.66
2022-08-14T16:59:30.514Z,101328.84
2022-08-14T17:02:12.938Z,101312.81
2022-08-14T17:04:49.212Z,101282.53
2022-08-14T17:07:17.586Z,101326.81
2022-08-14T17:09:48.497Z,101317.69
2022-08-14T17:12:28.608Z,101324.03
2022-08-14T17:15:10.568Z,101317.69
2022-08-14T17:17:57.447Z,101334.41
2022-08-14T17:21:00.570Z,101334.47
2022-08-14T17:23:15.336Z,101340.66
2022-08-14T17:25:49.355Z,101339.09
2022-08-14T17:28:50.424Z,101337.81
2022-08-14T17:31:12.797Z,101342.66
2022-08-14T17:33:44.777Z,101337.13
2022-08-14T17:36:24.283Z,101294.72
2022-08-14T17:39:06.207Z,101350.81
2022-08-14T17:41:38.743Z,101338.66
2022-08-14T17:44:19.846Z,101343.03
2022-08-14T17:46:57.023Z,101331.75
2022-08-14T17:49:27.277Z,101352.66
2022-08-14T17:52:17.515Z,101342.94
2022-08-14T17:54:53.027Z,101347.81
2022-08-14T17:57:35.234Z,101349.22
2022-08-14T18:00:04.049Z,101350.56
2022-08-14T18:02:36.546Z,101355.34
2022-08-14T18:05:08.809Z,101355.72
2022-08-14T18:07:50.687Z,101352.63
2022-08-14T18:10:52.030Z,101352.03
2022-08-14T18:13:16.583Z,101358.53
2022-08-14T18:15:51.095Z,101354.25
2022-08-14T18:18:21.529Z,101357.16
2022-08-14T18:21:42.512Z,101357.34
2022-08-14T18:23:44.778Z,101360.19
2022-08-14T18:26:37.242Z,101355.94
2022-08-14T18:29:07.612Z,101366.84
2022-08-14T18:31:45.386Z,101359.88
2022-08-14T18:34:30.799Z,101352.09
2022-08-14T18:37:12.524Z,101354.13
2022-08-14T18:40:03.224Z,101366.63
2022-08-14T18:42:46.018Z,101373.84
2022-08-14T18:45:26.385Z,101370.44
2022-08-14T18:48:33.624Z,101242.53
2022-08-14T18:51:45.710Z,101324.03
2022-08-14T18:54:29.694Z,101377.25
2022-08-14T18:57:02.278Z,101379.19
2022-08-14T18:59:40.256Z,101271.44
2022-08-14T19:02:44.532Z,101388.31
2022-08-14T19:05:14.475Z,101375.00
2022-08-14T19:07:48.252Z,101367.09
2022-08-14T19:10:31.928Z,101362.81
2022-08-14T19:13:12.398Z,101257.66
2022-08-14T19:15:44.143Z,101372.66
2022-08-14T19:18:26.493Z,101370.97
2022-08-14T19:20:58.203Z,101367.47
2022-08-14T19:23:42.467Z,101375.47
2022-08-14T19:29:23.981Z,101382.84
2022-08-14T19:31:55.271Z,101377.59
2022-08-14T19:34:40.485Z,101378.53
2022-08-14T19:37:47.749Z,101380.41
2022-08-14T19:40:30.003Z,101378.69
2022-08-14T19:43:01.338Z,101302.66
2022-08-14T19:45:33.874Z,101374.31
2022-08-14T19:48:02.807Z,101370.84
2022-08-14T19:50:40.751Z,101378.88
2022-08-14T19:53:17.291Z,101363.88
2022-08-14T19:55:59.234Z,101377.22
2022-08-14T19:58:55.494Z,101369.28
2022-08-14T20:01:37.520Z,101380.00
2022-08-14T20:04:46.939Z,101395.16
2022-08-14T20:06:57.913Z,101392.53
2022-08-14T20:11:04.171Z,101392.56
2022-08-14T20:12:34.883Z,101367.78
2022-08-14T20:15:15.536Z,101360.75
2022-08-14T20:17:52.348Z,101389.06
2022-08-14T20:20:31.815Z,101357.22
2022-08-14T20:23:10.883Z,101386.47
2022-08-14T20:25:55.696Z,101387.41
2022-08-14T20:28:32.910Z,101374.09
2022-08-14T20:31:20.148Z,101383.00
2022-08-14T20:34:19.348Z,101373.25
2022-08-14T20:37:02.820Z,101379.44
2022-08-14T20:39:34.391Z,101374.97
2022-08-14T20:42:24.947Z,101379.41
2022-08-14T20:45:17.272Z,101374.09
2022-08-14T20:47:50.531Z,101365.28
2022-08-14T20:50:28.757Z,101377.75
2022-08-14T20:52:59.646Z,101368.03
2022-08-14T20:55:32.544Z,101306.97
2022-08-14T20:58:09.818Z,101380.56
2022-08-14T21:00:52.292Z,101367.25
2022-08-14T21:03:37.228Z,101384.13
2022-08-14T21:06:28.453Z,101377.06
2022-08-14T21:09:03.320Z,101381.50
2022-08-14T21:11:33.023Z,101339.94
2022-08-14T21:14:24.919Z,101390.44
2022-08-14T21:16:59.065Z,101380.69
2022-08-14T21:19:30.193Z,101382.50
2022-08-14T21:22:01.506Z,101384.25
2022-08-14T21:24:39.227Z,101386.91
2022-08-14T21:27:20.448Z,101397.59
2022-08-14T21:29:55.491Z,101385.19
2022-08-14T21:32:35.301Z,101377.22
2022-08-14T21:35:09.039Z,101385.28
2022-08-14T21:37:45.986Z,101373.72
2022-08-14T21:40:39.853Z,101387.03
2022-08-14T21:43:05.760Z,101363.16
2022-08-14T21:45:35.514Z,101383.53
2022-08-14T21:48:10.914Z,101376.41
2022-08-14T21:51:01.322Z,101380.00
2022-08-14T21:53:33.857Z,101372.03
2022-08-14T21:56:03.973Z,101375.59
2022-08-14T21:58:53.843Z,101371.16
2022-08-14T22:01:21.740Z,101365.88
2022-08-14T22:03:55.291Z,101366.78
2022-08-14T22:06:28.849Z,101367.69
2022-08-14T22:08:58.498Z,101326.91
2022-08-14T22:11:27.736Z,101361.47
2022-08-14T22:14:02.392Z,101359.72
2022-08-14T22:17:02.252Z,101352.63
2022-08-14T22:19:47.423Z,101334.03
2022-08-14T22:22:26.012Z,101280.88
2022-08-14T22:25:00.317Z,101352.66
2022-08-14T22:27:32.199Z,101341.13
2022-08-14T22:30:03.046Z,101342.00
2022-08-14T22:32:55.911Z,101337.59
2022-08-14T22:35:19.521Z,101332.28
2022-08-14T22:38:01.852Z,101336.75
2022-08-14T22:41:20.264Z,101323.47
2022-08-14T22:43:35.248Z,101329.66
2022-08-14T22:46:03.329Z,101324.31
2022-08-14T22:48:45.397Z,101327.00
2022-08-14T22:51:14.932Z,101328.75
2022-08-14T22:53:46.249Z,101327.00
2022-08-14T22:56:21.254Z,101325.22
2022-08-14T22:58:54.034Z,101265.88
2022-08-14T23:01:56.468Z,101319.91
2022-08-14T23:04:35.155Z,101324.34
2022-08-14T23:07:22.261Z,101320.81
2022-08-14T23:09:56.930Z,101318.16
2022-08-14T23:12:29.433Z,101313.75
2022-08-14T23:15:00.109Z,101322.63
2022-08-14T23:17:39.348Z,101312.84
2022-08-14T23:20:18.999Z,101305.78
2022-08-14T23:22:51.534Z,101312.88
2022-08-14T23:25:56.693Z,101304.00
2022-08-14T23:28:34.157Z,101255.25
2022-08-14T23:31:08.634Z,101295.13
2022-08-14T23:33:38.950Z,101301.34
2022-08-14T23:36:31.928Z,101300.44
2022-08-14T23:39:10.430Z,101292.47
2022-08-14T23:41:46.860Z,101293.34
2022-08-14T23:44:21.860Z,101280.94
2022-08-14T23:46:52.594Z,101291.59
2022-08-14T23:49:25.631Z,101285.34
2022-08-14T23:51:59.604Z,101301.34
2022-08-14T23:54:49.411Z,101296.91
2022-08-14T23:57:19.498Z,101303.13
2022-08-14T23:59:54.221Z,101257.91
